Wilshire Park, Louisiana
Current Conditions -  °F | °C
As of 12:53 AM on Friday 31 Oct 2014 (Local Time) from KAEX Reporting Station
Broken Clouds Broken Clouds  
Wind Chill: 50°   Ceiling: 8500
Heat Index: 50°   Visibility: 10mi
Dew Point: 48°   Wind: 0mph
Humidity: 93%   Direction: NA
Pressure: 30.08"   Gusts: NA
Location:  31.2912°N, 92.5491°W
Report Text: KAEX 310553Z 00000KT 10SM SCT070 BKN085 10/09 A3008 RMK AO2 SLP189 T01000089 10150 20089 402390050 50002
Loading
Personal Weather Stations






























Interactive Weather Map
Tropical Storm Tracking
New forecast layout! Learn more

10-Day Weather Forecast

Advertisements
Track Severe Weather on mobile